Check out our new BloomSky Weather System.

Active alerts


No alerts


Thunder radar  blitzortung!


Rain radar more information rain snow radar


Visit our other weather sites:

Template documentation
and downloads

And another site



Weather Underground History page Text

Daily Summary for November 8, 2017 Units:  English    Metric   Both
« Previous Day
Next Day »
Daily Weekly Monthly Yearly Custom
  High: Low: Average:
Temperature: 62.8 °F 53.8 °F 57.5 °F
Dew Point: 57.6 °F 50.4 °F 53.3 °F
Humidity: 97 % 76 % 86 %
Wind Speed: 11.0 mph 0.0 mph 3.4 mph
Wind Gust: 14.0 mph - -
Wind:- - West
Pressure: 30.19 in 30.09 in -
Precipitation: 0.02 in    
Historical Graphs
 
 
Tabular Data for November 8, 2017
Time Temperature Dew Point Pressure Wind Wind Speed Wind Gust Humidity Rainfall Rate (Hourly)
00:00 62.8 °F 57.6 °F 30.09 in NW 3.0 mph 8.0 mph 83 % 0.00 in
00:05 62.8 °F 57.6 °F 30.09 in NNE 3.0 mph 7.0 mph 83 % 0.00 in
00:10 62.8 °F 57.6 °F 30.09 in NNW 6.0 mph 9.0 mph 83 % 0.00 in
00:15 62.6 °F 57.4 °F 30.09 in NNW 4.0 mph 9.0 mph 83 % 0.00 in
00:20 62.4 °F 56.8 °F 30.09 in NW 2.0 mph 9.0 mph 82 % 0.00 in
00:25 62.4 °F 56.8 °F 30.09 in NNW 6.0 mph 9.0 mph 82 % 0.00 in
00:30 62.4 °F 56.8 °F 30.09 in WNW 6.0 mph 11.0 mph 82 % 0.00 in
00:35 62.4 °F 56.8 °F 30.09 in NNW 4.0 mph 11.0 mph 82 % 0.00 in
00:40 62.2 °F 56.7 °F 30.09 in NE 10.0 mph 11.0 mph 82 % 0.00 in
00:45 62.2 °F 56.7 °F 30.09 in NNE 5.0 mph 11.0 mph 82 % 0.00 in
00:50 62.2 °F 56.3 °F 30.09 in NNW 5.0 mph 11.0 mph 81 % 0.00 in
00:55 62.2 °F 56.3 °F 30.09 in NNW 3.0 mph 10.0 mph 81 % 0.00 in
01:00 62.1 °F 56.1 °F 30.09 in NNW 3.0 mph 8.0 mph 81 % 0.00 in
01:05 62.1 °F 56.1 °F 30.09 in WNW 3.0 mph 9.0 mph 81 % 0.00 in
01:10 61.9 °F 55.6 °F 30.09 in NNW 4.0 mph 11.0 mph 80 % 0.00 in
01:15 61.9 °F 55.6 °F 30.09 in West 3.0 mph 11.0 mph 80 % 0.00 in
01:20 61.9 °F 55.6 °F 30.09 in NNW 3.0 mph 11.0 mph 80 % 0.00 in
01:25 61.9 °F 55.2 °F 30.10 in NW 2.0 mph 9.0 mph 79 % 0.00 in
01:30 61.7 °F 54.9 °F 30.10 in NW 3.0 mph 8.0 mph 78 % 0.00 in
01:35 61.7 °F 54.9 °F 30.10 in NW 4.0 mph 9.0 mph 78 % 0.00 in
01:40 61.5 °F 54.7 °F 30.10 in NNW 5.0 mph 11.0 mph 78 % 0.00 in
01:45 61.5 °F 54.3 °F 30.10 in NNW 5.0 mph 11.0 mph 77 % 0.00 in
01:50 61.3 °F 53.8 °F 30.11 in NNW 6.0 mph 11.0 mph 76 % 0.00 in
01:55 61.2 °F 53.6 °F 30.11 in NNW 5.0 mph 12.0 mph 76 % 0.00 in
02:00 61.2 °F 53.6 °F 30.10 in NNE 4.0 mph 12.0 mph 76 % 0.00 in
02:05 61.2 °F 53.6 °F 30.10 in NNW 5.0 mph 12.0 mph 76 % 0.00 in
02:10 61.2 °F 53.6 °F 30.10 in NNW 8.0 mph 11.0 mph 76 % 0.00 in
02:15 61.0 °F 53.4 °F 30.10 in NW 6.0 mph 11.0 mph 76 % 0.00 in
02:20 61.0 °F 53.4 °F 30.10 in NNW 3.0 mph 11.0 mph 76 % 0.00 in
02:25 61.0 °F 53.4 °F 30.10 in NW 3.0 mph 11.0 mph 76 % 0.00 in
02:35 60.8 °F 53.2 °F 30.10 in NNE 7.0 mph 13.0 mph 76 % 0.00 in
02:40 60.8 °F 53.2 °F 30.10 in NW 2.0 mph 13.0 mph 76 % 0.00 in
02:45 60.6 °F 53.1 °F 30.11 in NNW 4.0 mph 13.0 mph 76 % 0.00 in
02:50 60.6 °F 53.1 °F 30.11 in North 3.0 mph 13.0 mph 76 % 0.00 in
02:55 60.6 °F 53.1 °F 30.11 in North 2.0 mph 12.0 mph 76 % 0.00 in
03:00 60.6 °F 53.1 °F 30.10 in NNW 3.0 mph 9.0 mph 76 % 0.00 in
03:05 60.6 °F 53.4 °F 30.10 in NNW 2.0 mph 9.0 mph 77 % 0.00 in
03:07 60.6 °F 53.1 °F 30.10 in NNW 1.0 mph 9.0 mph 76 % 0.00 in
03:12 60.6 °F 53.1 °F 30.09 in NW 2.0 mph 9.0 mph 76 % 0.00 in
03:17 60.4 °F 52.9 °F 30.09 in North 6.0 mph 8.0 mph 76 % 0.00 in
03:22 60.3 °F 52.7 °F 30.09 in NNW 5.0 mph 11.0 mph 76 % 0.00 in
03:27 60.3 °F 52.7 °F 30.10 in WSW 2.0 mph 11.0 mph 76 % 0.00 in
03:32 60.1 °F 52.5 °F 30.10 in North 2.0 mph 11.0 mph 76 % 0.00 in
03:37 60.1 °F 52.9 °F 30.10 in NW 1.0 mph 9.0 mph 77 % 0.00 in
03:42 60.1 °F 52.9 °F 30.10 in NNW 1.0 mph 9.0 mph 77 % 0.00 in
03:47 60.1 °F 52.9 °F 30.10 in NNW 2.0 mph 8.0 mph 77 % 0.00 in
03:52 60.1 °F 52.9 °F 30.10 in North 4.0 mph 8.0 mph 77 % 0.00 in
03:57 60.1 °F 52.9 °F 30.10 in North 6.0 mph 8.0 mph 77 % 0.00 in
04:02 60.1 °F 52.9 °F 30.10 in NW 1.0 mph 8.0 mph 77 % 0.00 in
04:07 60.1 °F 52.9 °F 30.10 in NNE 3.0 mph 8.0 mph 77 % 0.00 in
04:12 60.3 °F 53.1 °F 30.10 in NNW 1.0 mph 6.0 mph 77 % 0.00 in
04:17 60.3 °F 53.1 °F 30.10 in NNW 3.0 mph 6.0 mph 77 % 0.00 in
04:22 60.3 °F 53.4 °F 30.10 in North 3.0 mph 5.0 mph 78 % 0.00 in
04:27 60.3 °F 53.1 °F 30.11 in NNW 3.0 mph 6.0 mph 77 % 0.00 in
04:32 60.3 °F 53.1 °F 30.11 in NNW 4.0 mph 7.0 mph 77 % 0.00 in
04:42 60.1 °F 52.9 °F 30.11 in Calm   9.0 mph 77 % 0.00 in
04:47 60.1 °F 52.5 °F 30.10 in West 1.0 mph 9.0 mph 76 % 0.00 in
04:52 59.9 °F 52.3 °F 30.10 in NNW 3.0 mph 8.0 mph 76 % 0.00 in
04:58 59.9 °F 52.7 °F 30.10 in NNW 4.0 mph 8.0 mph 77 % 0.00 in
05:03 59.7 °F 52.2 °F 30.10 in North 1.0 mph 9.0 mph 76 % 0.00 in
05:08 59.7 °F 52.5 °F 30.10 in NW 2.0 mph 9.0 mph 77 % 0.00 in
05:13 59.7 °F 52.5 °F 30.10 in ENE 3.0 mph 10.0 mph 77 % 0.00 in
05:18 59.7 °F 52.2 °F 30.10 in NNW 3.0 mph 10.0 mph 76 % 0.00 in
05:23 59.7 °F 52.2 °F 30.10 in NNW 3.0 mph 10.0 mph 76 % 0.00 in
05:28 59.7 °F 52.5 °F 30.10 in NW 6.0 mph 10.0 mph 77 % 0.00 in
05:33 59.5 °F 52.3 °F 30.11 in NNW 8.0 mph 10.0 mph 77 % 0.00 in
05:38 59.5 °F 52.3 °F 30.10 in NNW 2.0 mph 8.0 mph 77 % 0.00 in
05:43 59.5 °F 52.3 °F 30.10 in NW 2.0 mph 8.0 mph 77 % 0.00 in
05:48 59.5 °F 52.7 °F 30.10 in NNW 2.0 mph 8.0 mph 78 % 0.00 in
05:53 59.5 °F 52.7 °F 30.10 in NW 2.0 mph 7.0 mph 78 % 0.00 in
05:58 59.5 °F 52.7 °F 30.10 in NNW 1.0 mph 7.0 mph 78 % 0.00 in
06:03 59.4 °F 52.5 °F 30.10 in North 2.0 mph 7.0 mph 78 % 0.00 in
06:08 59.4 °F 52.5 °F 30.10 in North 2.0 mph 7.0 mph 78 % 0.00 in
06:13 59.2 °F 52.3 °F 30.11 in NNW 3.0 mph 5.0 mph 78 % 0.00 in
06:18 59.2 °F 52.3 °F 30.12 in North 2.0 mph 6.0 mph 78 % 0.00 in
06:23 58.8 °F 51.6 °F 30.12 in NNW 4.0 mph 7.0 mph 77 % 0.00 in
06:28 58.8 °F 51.6 °F 30.12 in NNW 4.0 mph 8.0 mph 77 % 0.00 in
06:33 58.5 °F 51.3 °F 30.12 in WNW 2.0 mph 10.0 mph 77 % 0.00 in
06:38 58.3 °F 51.1 °F 30.12 in WNW 3.0 mph 11.0 mph 77 % 0.00 in
06:43 58.1 °F 51.3 °F 30.12 in NW 2.0 mph 11.0 mph 78 % 0.00 in
06:48 57.9 °F 51.1 °F 30.12 in NNW 3.0 mph 11.0 mph 78 % 0.00 in
06:53 58.1 °F 51.3 °F 30.12 in North 5.0 mph 8.0 mph 78 % 0.00 in
06:58 57.9 °F 51.1 °F 30.12 in NNW 3.0 mph 9.0 mph 78 % 0.00 in
07:03 57.9 °F 51.1 °F 30.12 in North 3.0 mph 9.0 mph 78 % 0.00 in
07:08 57.7 °F 50.9 °F 30.12 in NW 4.0 mph 9.0 mph 78 % 0.00 in
07:13 57.7 °F 50.9 °F 30.12 in NNW 4.0 mph 9.0 mph 78 % 0.00 in
07:18 57.7 °F 50.9 °F 30.12 in SE 4.0 mph 9.0 mph 78 % 0.00 in
07:23 57.6 °F 50.7 °F 30.13 in NNW 5.0 mph 12.0 mph 78 % 0.00 in
07:28 57.4 °F 50.5 °F 30.13 in NNW 4.0 mph 12.0 mph 78 % 0.00 in
07:33 57.2 °F 50.7 °F 30.13 in North 3.0 mph 12.0 mph 79 % 0.00 in
07:44 57.0 °F 50.5 °F 30.13 in North 5.0 mph 11.0 mph 79 % 0.00 in
07:49 57.0 °F 50.5 °F 30.13 in North 4.0 mph 11.0 mph 79 % 0.00 in
07:54 57.0 °F 50.5 °F 30.13 in NNW 2.0 mph 11.0 mph 79 % 0.00 in
07:59 57.0 °F 50.9 °F 30.13 in NNW 2.0 mph 11.0 mph 80 % 0.00 in
08:04 56.8 °F 50.4 °F 30.13 in NNW 5.0 mph 11.0 mph 79 % 0.00 in
08:09 56.8 °F 50.7 °F 30.13 in WNW 4.0 mph 9.0 mph 80 % 0.00 in
08:14 56.7 °F 50.5 °F 30.13 in NNW 3.0 mph 10.0 mph 80 % 0.00 in
08:19 56.7 °F 50.5 °F 30.13 in WNW 2.0 mph 10.0 mph 80 % 0.00 in
08:20 56.7 °F 50.5 °F 30.13 in NNW 5.0 mph 10.0 mph 80 % 0.00 in
08:25 56.5 °F 50.7 °F 30.14 in NNW 6.0 mph 10.0 mph 81 % 0.00 in
08:30 56.5 °F 50.7 °F 30.14 in WNW 3.0 mph 10.0 mph 81 % 0.00 in
08:35 56.7 °F 50.9 °F 30.14 in NW 6.0 mph 9.0 mph 81 % 0.00 in
08:40 56.7 °F 50.9 °F 30.15 in NNW 8.0 mph 9.0 mph 81 % 0.00 in
08:45 56.7 °F 50.9 °F 30.15 in WNW 4.0 mph 10.0 mph 81 % 0.00 in
08:50 56.7 °F 51.3 °F 30.16 in West 1.0 mph 10.0 mph 82 % 0.00 in
08:55 56.7 °F 51.3 °F 30.16 in NNW 3.0 mph 14.0 mph 82 % 0.00 in
09:00 56.5 °F 51.4 °F 30.16 in NNW 4.0 mph 14.0 mph 83 % 0.00 in
09:05 56.5 °F 51.6 °F 30.15 in NNW 4.0 mph 14.0 mph 84 % 0.00 in
09:10 56.1 °F 51.4 °F 30.16 in NNW 7.0 mph 9.0 mph 84 % 0.00 in
09:15 56.3 °F 51.4 °F 30.16 in NW 4.0 mph 9.0 mph 84 % 0.00 in
09:20 56.3 °F 51.8 °F 30.16 in North 6.0 mph 11.0 mph 85 % 0.00 in
09:25 56.3 °F 51.8 °F 30.16 in North 4.0 mph 11.0 mph 85 % 0.00 in
09:30 56.7 °F 51.8 °F 30.16 in NNW 1.0 mph 11.0 mph 84 % 0.00 in
09:35 56.7 °F 52.2 °F 30.16 in North 5.0 mph 10.0 mph 85 % 0.00 in
09:40 56.8 °F 52.0 °F 30.16 in NNW 2.0 mph 10.0 mph 84 % 0.00 in
09:45 56.8 °F 52.0 °F 30.16 in North 6.0 mph 10.0 mph 84 % 0.00 in
09:50 57.0 °F 52.2 °F 30.16 in WNW 4.0 mph 10.0 mph 84 % 0.00 in
09:55 57.0 °F 52.2 °F 30.16 in NW 3.0 mph 8.0 mph 84 % 0.00 in
10:00 57.0 °F 52.2 °F 30.16 in NNE 3.0 mph 9.0 mph 84 % 0.00 in
10:05 57.0 °F 52.2 °F 30.16 in WNW 3.0 mph 9.0 mph 84 % 0.00 in
10:10 57.0 °F 52.2 °F 30.16 in NW 2.0 mph 10.0 mph 84 % 0.00 in
10:15 57.0 °F 52.0 °F 30.16 in NNW 5.0 mph 10.0 mph 83 % 0.00 in
10:20 57.0 °F 52.2 °F 30.16 in NW 2.0 mph 10.0 mph 84 % 0.00 in
10:25 57.0 °F 52.2 °F 30.16 in NNW 3.0 mph 10.0 mph 84 % 0.00 in
10:30 56.8 °F 52.0 °F 30.17 in North 7.0 mph 10.0 mph 84 % 0.00 in
10:35 56.8 °F 52.0 °F 30.16 in NW 1.0 mph 10.0 mph 84 % 0.00 in
10:40 57.0 °F 52.2 °F 30.16 in NNW 4.0 mph 10.0 mph 84 % 0.00 in
10:45 57.0 °F 52.2 °F 30.16 in NW 5.0 mph 8.0 mph 84 % 0.00 in
10:50 57.0 °F 52.2 °F 30.16 in NW 3.0 mph 8.0 mph 84 % 0.00 in
10:55 56.7 °F 51.8 °F 30.16 in NNW 2.0 mph 12.0 mph 84 % 0.00 in
11:00 56.7 °F 52.2 °F 30.15 in NW 4.0 mph 12.0 mph 85 % 0.00 in
11:05 56.7 °F 52.5 °F 30.15 in NNW 2.0 mph 12.0 mph 86 % 0.00 in
11:10 56.7 °F 52.2 °F 30.15 in NW 5.0 mph 11.0 mph 85 % 0.00 in
11:15 56.7 °F 52.2 °F 30.15 in North 3.0 mph 10.0 mph 85 % 0.00 in
11:20 56.8 °F 52.7 °F 30.14 in NW 1.0 mph 10.0 mph 86 % 0.00 in
11:25 56.8 °F 52.3 °F 30.14 in NW 2.0 mph 10.0 mph 85 % 0.00 in
11:30 56.8 °F 52.3 °F 30.14 in WNW 4.0 mph 10.0 mph 85 % 0.00 in
11:32 56.8 °F 52.3 °F 30.14 in North 6.0 mph 10.0 mph 85 % 0.00 in
11:37 56.8 °F 52.7 °F 30.14 in North 3.0 mph 10.0 mph 86 % 0.00 in
11:42 57.4 °F 53.2 °F 30.13 in North 6.0 mph 10.0 mph 86 % 0.00 in
11:47 57.6 °F 52.7 °F 30.13 in NNE 6.0 mph 10.0 mph 84 % 0.00 in
11:52 57.6 °F 52.7 °F 30.13 in NNW 3.0 mph 9.0 mph 84 % 0.00 in
11:55 57.6 °F 53.1 °F 30.13 in NW 3.0 mph 8.0 mph 85 % 0.00 in
12:01 57.6 °F 53.1 °F 30.13 in NNW 4.0 mph 9.0 mph 85 % 0.00 in
12:06 57.4 °F 52.9 °F 30.13 in East 5.0 mph 9.0 mph 85 % 0.00 in
12:11 57.4 °F 53.2 °F 30.14 in NW 4.0 mph 9.0 mph 86 % 0.00 in
12:16 57.4 °F 52.9 °F 30.14 in NW 6.0 mph 9.0 mph 85 % 0.00 in
12:21 57.2 °F 53.1 °F 30.13 in NNE 6.0 mph 8.0 mph 86 % 0.00 in
12:26 57.0 °F 52.9 °F 30.13 in NW 4.0 mph 10.0 mph 86 % 0.00 in
12:31 56.7 °F 52.5 °F 30.13 in NNW 8.0 mph 10.0 mph 86 % 0.00 in
12:36 56.5 °F 52.7 °F 30.13 in NNE 10.0 mph 10.0 mph 87 % 0.00 in
12:41 56.7 °F 52.9 °F 30.13 in WNW 2.0 mph 10.0 mph 87 % 0.00 in
12:46 56.8 °F 53.1 °F 30.12 in North 3.0 mph 10.0 mph 87 % 0.00 in
12:51 56.8 °F 52.7 °F 30.12 in NW 3.0 mph 10.0 mph 86 % 0.00 in
12:56 57.0 °F 53.2 °F 30.12 in NNW 2.0 mph 9.0 mph 87 % 0.00 in
13:01 57.4 °F 53.2 °F 30.11 in North 6.0 mph 9.0 mph 86 % 0.00 in
13:06 57.6 °F 53.4 °F 30.11 in NE 5.0 mph 9.0 mph 86 % 0.00 in
13:11 57.6 °F 53.4 °F 30.11 in NNW 3.0 mph 12.0 mph 86 % 0.00 in
13:21 57.7 °F 53.2 °F 30.11 in WNW 2.0 mph 12.0 mph 85 % 0.00 in
13:26 57.9 °F 53.8 °F 30.10 in NNE 2.0 mph 7.0 mph 86 % 0.00 in
13:31 58.5 °F 54.0 °F 30.10 in NNW 2.0 mph 7.0 mph 85 % 0.00 in
13:36 58.6 °F 53.8 °F 30.09 in NNE 6.0 mph 8.0 mph 84 % 0.00 in
13:41 58.6 °F 53.8 °F 30.10 in West 4.0 mph 8.0 mph 84 % 0.00 in
13:46 58.5 °F 53.6 °F 30.10 in North 4.0 mph 10.0 mph 84 % 0.00 in
13:51 58.5 °F 54.0 °F 30.10 in NNW 3.0 mph 10.0 mph 85 % 0.00 in
13:56 58.6 °F 54.1 °F 30.10 in NNW 2.0 mph 10.0 mph 85 % 0.00 in
14:01 58.6 °F 54.1 °F 30.10 in NW 4.0 mph 9.0 mph 85 % 0.00 in
14:06 58.5 °F 54.0 °F 30.10 in NNE 7.0 mph 10.0 mph 85 % 0.00 in
14:11 58.3 °F 53.8 °F 30.10 in NNE 11.0 mph 11.0 mph 85 % 0.00 in
14:16 58.3 °F 53.8 °F 30.10 in NNW 4.0 mph 11.0 mph 85 % 0.00 in
14:21 58.3 °F 53.8 °F 30.11 in North 4.0 mph 11.0 mph 85 % 0.00 in
14:26 58.3 °F 53.8 °F 30.11 in WNW 5.0 mph 11.0 mph 85 % 0.00 in
14:31 57.9 °F 53.4 °F 30.10 in NNW 3.0 mph 10.0 mph 85 % 0.00 in
14:36 57.9 °F 53.8 °F 30.10 in NW 4.0 mph 10.0 mph 86 % 0.00 in
14:41 57.9 °F 53.8 °F 30.10 in NW 3.0 mph 10.0 mph 86 % 0.00 in
14:46 57.9 °F 53.8 °F 30.10 in NNW 2.0 mph 8.0 mph 86 % 0.00 in
14:51 57.7 °F 54.0 °F 30.10 in NE 3.0 mph 8.0 mph 87 % 0.00 in
14:56 57.9 °F 54.1 °F 30.10 in NW 2.0 mph 8.0 mph 87 % 0.00 in
15:01 57.7 °F 54.0 °F 30.10 in North 3.0 mph 12.0 mph 87 % 0.00 in
15:06 57.6 °F 54.0 °F 30.11 in NW 3.0 mph 12.0 mph 88 % 0.00 in
15:11 57.6 °F 54.0 °F 30.11 in NW 3.0 mph 12.0 mph 88 % 0.00 in
15:16 57.6 °F 54.0 °F 30.11 in NNE 4.0 mph 9.0 mph 88 % 0.00 in
15:21 57.6 °F 54.0 °F 30.11 in NNW 4.0 mph 8.0 mph 88 % 0.00 in
15:26 57.4 °F 54.1 °F 30.11 in North 6.0 mph 10.0 mph 89 % 0.00 in
15:31 57.4 °F 54.1 °F 30.11 in North 4.0 mph 10.0 mph 89 % 0.00 in
15:36 57.4 °F 54.5 °F 30.12 in NW 2.0 mph 10.0 mph 90 % 0.00 in
15:41 57.0 °F 54.5 °F 30.12 in NW 2.0 mph 9.0 mph 91 % 0.00 in
15:46 56.8 °F 54.5 °F 30.11 in WNW 3.0 mph 6.0 mph 92 % 0.00 in
15:51 56.5 °F 54.5 °F 30.12 in NNW 5.0 mph 7.0 mph 93 % 0.00 in
15:56 56.1 °F 54.5 °F 30.12 in North 3.0 mph 8.0 mph 94 % 0.00 in
16:01 56.1 °F 54.7 °F 30.11 in NNW 4.0 mph 8.0 mph 95 % 0.00 in
16:06 56.1 °F 54.7 °F 30.11 in NNW 2.0 mph 8.0 mph 95 % 0.00 in
16:11 55.9 °F 54.5 °F 30.11 in NNW 3.0 mph 10.0 mph 95 % 0.00 in
16:16 55.8 °F 54.3 °F 30.11 in NNW 6.0 mph 10.0 mph 95 % 0.00 in
16:21 55.6 °F 54.1 °F 30.12 in WNW 2.0 mph 12.0 mph 95 % 0.00 in
16:23 55.6 °F 54.1 °F 30.12 in NW 2.0 mph 12.0 mph 95 % 0.00 in
16:28 55.6 °F 54.5 °F 30.12 in Calm   12.0 mph 96 % 0.00 in
16:33 55.6 °F 54.5 °F 30.12 in NW 2.0 mph 12.0 mph 96 % 0.00 in
16:38 55.6 °F 54.5 °F 30.12 in NNW 2.0 mph 8.0 mph 96 % 0.00 in
16:43 55.6 °F 54.5 °F 30.11 in North 2.0 mph 10.0 mph 96 % 0.00 in
16:48 55.6 °F 54.5 °F 30.12 in NNW 4.0 mph 10.0 mph 96 % 0.00 in
16:53 55.6 °F 54.1 °F 30.12 in NNW 2.0 mph 10.0 mph 95 % 0.00 in
16:58 55.6 °F 54.5 °F 30.13 in NE 4.0 mph 6.0 mph 96 % 0.00 in
17:03 55.6 °F 54.5 °F 30.13 in NNW 2.0 mph 6.0 mph 96 % 0.00 in
17:08 55.6 °F 54.1 °F 30.13 in WNW 3.0 mph 6.0 mph 95 % 0.00 in
17:13 55.6 °F 54.1 °F 30.13 in NNW 4.0 mph 7.0 mph 95 % 0.00 in
17:18 55.6 °F 54.1 °F 30.13 in NNW 3.0 mph 8.0 mph 95 % 0.00 in
17:23 55.4 °F 54.0 °F 30.13 in NNW 1.0 mph 8.0 mph 95 % 0.00 in
17:28 55.6 °F 54.1 °F 30.13 in NNW 5.0 mph 8.0 mph 95 % 0.00 in
17:33 55.6 °F 54.1 °F 30.13 in NW 2.0 mph 8.0 mph 95 % 0.00 in
17:38 55.6 °F 54.1 °F 30.13 in NW 3.0 mph 6.0 mph 95 % 0.00 in
17:43 55.6 °F 54.1 °F 30.13 in North 6.0 mph 8.0 mph 95 % 0.00 in
17:48 55.6 °F 54.0 °F 30.13 in NW 2.0 mph 8.0 mph 94 % 0.00 in
17:53 55.6 °F 54.1 °F 30.13 in NW 2.0 mph 8.0 mph 95 % 0.00 in
17:58 55.6 °F 54.0 °F 30.13 in NW 3.0 mph 7.0 mph 94 % 0.00 in
18:03 55.6 °F 54.1 °F 30.13 in North 1.0 mph 7.0 mph 95 % 0.00 in
18:09 55.6 °F 54.1 °F 30.14 in NNW 1.0 mph 7.0 mph 95 % 0.00 in
18:14 55.6 °F 54.1 °F 30.14 in North 2.0 mph 7.0 mph 95 % 0.00 in
18:19 55.8 °F 54.3 °F 30.14 in NNW 4.0 mph 6.0 mph 95 % 0.00 in
18:24 55.6 °F 54.1 °F 30.14 in NNW 2.0 mph 8.0 mph 95 % 0.00 in
18:29 55.8 °F 54.3 °F 30.14 in West 4.0 mph 8.0 mph 95 % 0.00 in
18:34 55.6 °F 54.1 °F 30.14 in North 2.0 mph 8.0 mph 95 % 0.00 in
18:39 55.8 °F 54.3 °F 30.14 in North 5.0 mph 8.0 mph 95 % 0.00 in
18:44 55.6 °F 54.1 °F 30.15 in NNE 4.0 mph 8.0 mph 95 % 0.00 in
18:49 55.6 °F 54.1 °F 30.15 in NNW 3.0 mph 7.0 mph 95 % 0.00 in
18:54 55.6 °F 54.1 °F 30.14 in NW 5.0 mph 9.0 mph 95 % 0.00 in
18:59 55.6 °F 54.1 °F 30.14 in NW 2.0 mph 9.0 mph 95 % 0.00 in
19:04 55.6 °F 54.1 °F 30.14 in NNW 2.0 mph 9.0 mph 95 % 0.00 in
19:09 55.6 °F 54.1 °F 30.14 in NNW 3.0 mph 8.0 mph 95 % 0.00 in
19:14 55.6 °F 54.1 °F 30.14 in NW 3.0 mph 9.0 mph 95 % 0.00 in
19:19 55.6 °F 54.1 °F 30.15 in NW 4.0 mph 9.0 mph 95 % 0.00 in
19:24 55.6 °F 54.1 °F 30.14 in North 4.0 mph 9.0 mph 95 % 0.00 in
19:29 55.8 °F 54.3 °F 30.14 in NW 2.0 mph 7.0 mph 95 % 0.00 in
19:34 55.8 °F 54.3 °F 30.14 in NNW 2.0 mph 7.0 mph 95 % 0.00 in
19:39 55.8 °F 54.3 °F 30.15 in Calm   6.0 mph 95 % 0.00 in
19:44 55.8 °F 54.1 °F 30.15 in NW 2.0 mph 5.0 mph 94 % 0.00 in
19:49 55.8 °F 54.1 °F 30.14 in North 1.0 mph 5.0 mph 94 % 0.00 in
19:54 55.9 °F 54.3 °F 30.14 in WNW 2.0 mph 6.0 mph 94 % 0.00 in
19:59 55.9 °F 54.3 °F 30.14 in Calm   6.0 mph 94 % 0.00 in
20:04 55.9 °F 54.3 °F 30.15 in Calm   8.0 mph 94 % 0.00 in
20:09 55.9 °F 54.3 °F 30.15 in Calm   8.0 mph 94 % 0.00 in
20:14 55.9 °F 54.3 °F 30.15 in NE 2.0 mph 8.0 mph 94 % 0.00 in
20:19 55.9 °F 54.5 °F 30.15 in North 2.0 mph 5.0 mph 95 % 0.00 in
20:24 55.9 °F 54.5 °F 30.14 in North 1.0 mph 5.0 mph 95 % 0.00 in
20:29 55.9 °F 54.5 °F 30.14 in Calm   5.0 mph 95 % 0.01 in
20:34 55.9 °F 54.5 °F 30.15 in North 3.0 mph 4.0 mph 95 % 0.01 in
20:39 55.9 °F 54.5 °F 30.15 in NW 2.0 mph 4.0 mph 95 % 0.01 in
20:44 55.9 °F 54.5 °F 30.16 in NNW 1.0 mph 4.0 mph 95 % 0.01 in
20:49 55.9 °F 54.5 °F 30.15 in NNW 1.0 mph 4.0 mph 95 % 0.01 in
20:54 55.9 °F 54.5 °F 30.16 in NNW 3.0 mph 4.0 mph 95 % 0.01 in
20:59 55.8 °F 54.3 °F 30.16 in NNW 2.0 mph 6.0 mph 95 % 0.01 in
21:04 55.8 °F 54.3 °F 30.15 in Calm   6.0 mph 95 % 0.02 in
21:09 55.8 °F 54.3 °F 30.15 in NNW 2.0 mph 6.0 mph 95 % 0.02 in
21:15 55.8 °F 54.3 °F 30.16 in North 5.0 mph 7.0 mph 95 % 0.02 in
21:20 55.6 °F 54.1 °F 30.16 in NNW 3.0 mph 7.0 mph 95 % 0.02 in
21:22 55.6 °F 54.1 °F 30.15 in NW 1.0 mph 7.0 mph 95 % 0.02 in
21:27 55.6 °F 54.5 °F 30.15 in NW 4.0 mph 8.0 mph 96 % 0.01 in
21:31 55.4 °F 54.0 °F 30.15 in NNW 1.0 mph 8.0 mph 95 % 0.01 in
21:36 55.4 °F 54.3 °F 30.17 in NNE 2.0 mph 8.0 mph 96 % 0.01 in
21:41 55.2 °F 54.1 °F 30.16 in NW 3.0 mph 5.0 mph 96 % 0.01 in
21:46 55.2 °F 54.1 °F 30.16 in NNW 3.0 mph 7.0 mph 96 % 0.01 in
21:51 55.2 °F 54.1 °F 30.15 in NW 3.0 mph 7.0 mph 96 % 0.01 in
21:56 55.2 °F 54.1 °F 30.16 in NNE 4.0 mph 7.0 mph 96 % 0.01 in
22:01 55.0 °F 54.0 °F 30.17 in NNW 3.0 mph 7.0 mph 96 % 0.00 in
22:06 55.0 °F 54.0 °F 30.16 in North 5.0 mph 6.0 mph 96 % 0.00 in
22:11 55.0 °F 54.0 °F 30.16 in North 7.0 mph 7.0 mph 96 % 0.00 in
22:16 54.9 °F 53.8 °F 30.16 in NNW 2.0 mph 8.0 mph 96 % 0.00 in
22:21 54.9 °F 53.8 °F 30.16 in NW 3.0 mph 8.0 mph 96 % 0.00 in
22:26 54.7 °F 53.6 °F 30.16 in North 4.0 mph 8.0 mph 96 % 0.00 in
22:31 54.5 °F 53.6 °F 30.16 in NNW 2.0 mph 9.0 mph 97 % 0.00 in
22:36 54.3 °F 53.4 °F 30.15 in North 6.0 mph 9.0 mph 97 % 0.00 in
22:41 54.3 °F 53.4 °F 30.15 in NNW 3.0 mph 9.0 mph 97 % 0.00 in
22:46 54.1 °F 53.2 °F 30.15 in NW 3.0 mph 8.0 mph 97 % 0.00 in
22:51 54.1 °F 53.2 °F 30.17 in NW 5.0 mph 8.0 mph 97 % 0.00 in
22:56 54.1 °F 53.2 °F 30.17 in NW 3.0 mph 8.0 mph 97 % 0.00 in
23:01 54.1 °F 53.2 °F 30.18 in NW 4.0 mph 6.0 mph 97 % 0.00 in
23:06 54.1 °F 53.2 °F 30.19 in NW 7.0 mph 11.0 mph 97 % 0.00 in
23:11 54.1 °F 53.2 °F 30.19 in NNW 6.0 mph 11.0 mph 97 % 0.00 in
23:16 54.1 °F 53.2 °F 30.18 in NNW 6.0 mph 11.0 mph 97 % 0.00 in
23:21 54.1 °F 53.2 °F 30.17 in NNE 5.0 mph 11.0 mph 97 % 0.00 in
23:26 54.1 °F 53.1 °F 30.17 in NNW 2.0 mph 10.0 mph 96 % 0.00 in
23:31 54.1 °F 53.1 °F 30.17 in NW 6.0 mph 9.0 mph 96 % 0.00 in
23:36 54.0 °F 52.9 °F 30.17 in North 2.0 mph 9.0 mph 96 % 0.00 in
23:39 54.0 °F 53.1 °F 30.17 in NNW 2.0 mph 9.0 mph 97 % 0.00 in
23:44 53.8 °F 52.9 °F 30.17 in Calm   8.0 mph 97 % 0.00 in
23:49 53.8 °F 52.9 °F 30.17 in NNW 3.0 mph 7.0 mph 97 % 0.00 in
23:54 53.8 °F 52.9 °F 30.18 in NNW 3.0 mph 8.0 mph 97 % 0.00 in
23:59 53.8 °F 52.9 °F 30.18 in NNW 4.0 mph 8.0 mph 97 % 0.00 in
Spring, Texas: Villages of Bridgestone
Compliments of Weather Underground - 3.25 mb

Script developed by  Jim McMurry - jmcmurry@mwt.net Adapted for the template by  Wim van der Kuil - Leuven-Template.eu

You find our weather info also at:

UK Metoffice

WeatherCloud

Weather Underground

Mid-South Weather Network

AWEKAS

Citizen Weather Observer Program (CWOP)

HAMweather, WeatherForYou, PWS Weather

Equipment we use:

Weather-station
Davis Vantage Vue

Weather-program
Meteohub

Weather-server
Debian 7.9 x86 (Guest)

Provider
DreamHost

Davis Vantage Vue

Meteohub

Debian 7.9 x86 (Guest)

DreamHost